createdAt,value
2022-08-05T05:14:55.184Z,99.90
2022-08-05T05:19:48.828Z,99.90
2022-08-05T05:24:57.083Z,99.90
2022-08-05T05:43:56.953Z,99.90
2022-08-05T05:48:44.234Z,99.90
2022-08-05T05:53:45.933Z,99.90
2022-08-05T05:58:49.608Z,99.90
2022-08-05T06:04:01.181Z,99.90
2022-08-05T06:08:57.081Z,99.90
2022-08-05T06:13:54.109Z,99.90
2022-08-05T06:18:48.946Z,99.90
2022-08-05T06:23:49.836Z,99.90
2022-08-05T06:40:02.639Z,99.90
2022-08-05T06:44:56.187Z,99.90
2022-08-05T06:50:01.917Z,99.90
2022-08-05T06:54:58.852Z,99.90
2022-08-05T06:59:58.004Z,99.90
2022-08-05T07:16:00.912Z,99.90
2022-08-05T07:20:48.143Z,99.90
2022-08-05T07:25:56.398Z,99.90
2022-08-05T07:30:52.936Z,99.90
2022-08-05T07:36:04.783Z,99.90
2022-08-05T07:52:40.358Z,99.10
2022-08-05T07:57:41.678Z,99.00
2022-08-05T08:03:15.282Z,98.80
2022-08-05T08:08:04.715Z,98.50
2022-08-05T08:13:13.429Z,98.70
2022-08-05T08:18:15.704Z,97.80
2022-08-05T08:24:01.846Z,97.60
2022-08-05T08:41:59.964Z,95.30
2022-08-05T08:46:56.118Z,95.30
2022-08-05T08:52:05.921Z,95.10
2022-08-05T08:57:11.481Z,93.80
2022-08-05T09:02:09.554Z,93.10
2022-08-05T09:07:03.456Z,92.70
2022-08-05T09:12:20.435Z,92.60
2022-08-05T09:17:41.124Z,91.60
2022-08-05T09:23:19.861Z,91.20
2022-08-05T09:28:32.192Z,90.60
2022-08-05T09:33:35.087Z,88.50
2022-08-05T09:38:29.869Z,87.70
2022-08-05T09:43:40.461Z,84.70
2022-08-05T09:48:38.369Z,83.70
2022-08-05T09:53:53.684Z,80.10
2022-08-05T09:58:59.867Z,80.00
2022-08-05T10:04:00.288Z,80.40
2022-08-05T10:08:55.661Z,79.30
2022-08-05T10:13:49.546Z,78.20
2022-08-05T10:18:49.893Z,74.30
2022-08-05T10:23:59.208Z,76.20
2022-08-05T10:28:56.517Z,76.40
2022-08-05T10:33:54.227Z,73.10
2022-08-05T10:38:51.173Z,73.50
2022-08-05T10:43:51.824Z,74.30
2022-08-05T10:48:52.591Z,73.30
2022-08-05T10:54:01.003Z,72.40
2022-08-05T11:00:01.322Z,71.30
2022-08-05T11:04:26.251Z,69.70
2022-08-05T11:09:32.013Z,69.30
2022-08-05T11:15:01.267Z,68.00
2022-08-05T11:20:17.176Z,65.40
2022-08-05T11:26:05.242Z,64.40
2022-08-05T11:31:57.607Z,64.90
2022-08-05T11:36:52.865Z,64.40
2022-08-05T11:42:02.419Z,63.70
2022-08-05T11:47:11.067Z,61.70
2022-08-05T11:52:11.922Z,61.50
2022-08-05T11:57:24.334Z,60.00
2022-08-05T12:02:24.486Z,59.90
2022-08-05T12:08:08.838Z,59.20
2022-08-05T12:12:55.402Z,59.10
2022-08-05T12:18:04.425Z,58.10
2022-08-05T12:23:14.282Z,58.00
2022-08-05T12:28:09.328Z,57.80
2022-08-05T12:33:27.328Z,57.90
2022-08-05T12:38:30.214Z,57.40
2022-08-05T12:43:26.946Z,56.50
2022-08-05T12:48:32.692Z,56.50
2022-08-05T12:53:37.146Z,56.10
2022-08-05T12:58:50.015Z,56.10
2022-08-05T13:03:48.721Z,56.30
2022-08-05T13:08:50.767Z,54.80
2022-08-05T13:14:04.639Z,55.00
2022-08-05T13:19:03.413Z,53.60
2022-08-05T13:23:58.694Z,53.30
2022-08-05T13:28:54.163Z,53.20
2022-08-05T13:34:24.286Z,53.30
2022-08-05T13:39:01.933Z,53.80
2022-08-05T13:44:04.268Z,53.80
2022-08-05T13:49:00.758Z,54.90
2022-08-05T13:53:56.465Z,53.70
2022-08-05T13:58:53.368Z,53.90
2022-08-05T14:04:10.424Z,55.40
2022-08-05T14:09:08.423Z,56.70
2022-08-05T14:14:03.204Z,58.30
2022-08-05T14:19:04.211Z,59.60
2022-08-05T14:23:58.532Z,61.10
2022-08-05T14:28:54.489Z,62.20
2022-08-05T14:34:00.229Z,63.50
2022-08-05T14:38:57.205Z,64.80
2022-08-05T14:44:02.244Z,66.90
2022-08-05T14:49:06.427Z,68.30
2022-08-05T14:54:26.768Z,70.30
2022-08-05T14:59:18.466Z,71.80
2022-08-05T15:04:14.856Z,74.60
2022-08-05T15:09:10.761Z,75.50
2022-08-05T15:14:04.565Z,77.50
2022-08-05T15:18:58.706Z,78.80
2022-08-05T15:23:54.462Z,80.50
2022-08-05T15:28:51.956Z,82.60
2022-08-05T15:34:05.591Z,83.40
2022-08-05T15:41:04.619Z,83.50
2022-08-05T15:44:18.784Z,84.50
2022-08-05T15:49:18.121Z,85.60
2022-08-05T15:54:20.043Z,86.70
2022-08-05T15:59:30.033Z,88.00
2022-08-05T16:04:25.403Z,88.30
2022-08-05T16:09:22.164Z,89.20
2022-08-05T16:14:17.273Z,89.50
2022-08-05T16:19:18.906Z,89.20
2022-08-05T16:24:40.364Z,90.40
2022-08-05T16:29:37.283Z,90.90
2022-08-05T16:34:33.460Z,91.20
2022-08-05T16:40:05.960Z,91.70
2022-08-05T16:44:41.654Z,91.80
2022-08-05T16:49:42.446Z,92.10
2022-08-05T16:54:36.373Z,93.10
2022-08-05T16:59:32.559Z,93.20
2022-08-05T17:04:47.521Z,93.30
2022-08-05T17:09:58.389Z,94.00
2022-08-05T17:14:53.066Z,94.20
2022-08-05T17:19:55.457Z,94.10
2022-08-05T17:24:57.525Z,94.80
2022-08-05T17:29:53.085Z,95.60
2022-08-05T17:34:55.870Z,95.90
2022-08-05T17:39:55.879Z,96.30
2022-08-05T17:44:51.086Z,97.10
2022-08-05T17:50:00.582Z,97.20
